createdAt,value
2019-01-24T00:00:34.062Z,15.77
2019-01-24T00:03:02.533Z,14.93
2019-01-24T00:05:30.881Z,13.73
2019-01-24T00:07:59.333Z,14.17
2019-01-24T00:10:27.840Z,14.70
2019-01-24T00:12:57.409Z,16.33
2019-01-24T00:15:26.020Z,15.53
2019-01-24T00:17:54.454Z,16.10
2019-01-24T00:20:22.854Z,15.60
2019-01-24T00:22:51.446Z,15.07
2019-01-24T00:25:20.045Z,15.70
2019-01-24T00:27:48.511Z,12.37
2019-01-24T00:30:17.077Z,14.00
2019-01-24T00:32:46.469Z,14.40
2019-01-24T00:35:15.072Z,12.30
2019-01-24T00:37:43.808Z,11.53
2019-01-24T00:40:14.785Z,11.43
2019-01-24T00:42:43.725Z,13.77
2019-01-24T00:45:13.265Z,13.17
2019-01-24T00:47:41.590Z,11.97
2019-01-24T00:50:10.581Z,11.50
2019-01-24T00:52:38.901Z,11.03
2019-01-24T00:55:10.009Z,10.40
2019-01-24T00:57:38.409Z,10.90
2019-01-24T01:00:10.870Z,10.68
2019-01-24T01:02:39.349Z,10.83
2019-01-24T01:05:08.562Z,14.23
2019-01-24T01:07:37.094Z,7.50
2019-01-24T01:10:06.361Z,11.33
2019-01-24T01:12:34.927Z,9.63
2019-01-24T01:15:05.565Z,10.83
2019-01-24T01:17:33.976Z,10.57
2019-01-24T01:20:03.264Z,10.67
2019-01-24T01:22:31.683Z,12.10
2019-01-24T01:25:00.208Z,7.87
2019-01-24T01:27:28.565Z,10.27
2019-01-24T01:29:56.989Z,9.00
2019-01-24T01:32:25.394Z,8.73
2019-01-24T01:34:53.969Z,8.83
2019-01-24T01:37:22.496Z,7.97
2019-01-24T01:39:51.000Z,9.60
2019-01-24T01:42:19.376Z,8.30
2019-01-24T01:44:48.000Z,9.47
2019-01-24T01:47:16.379Z,8.23
2019-01-24T01:49:44.872Z,7.80
2019-01-24T01:52:13.356Z,9.27
2019-01-24T01:54:41.839Z,8.43
2019-01-24T01:57:10.161Z,8.10
2019-01-24T01:59:38.625Z,9.73
2019-01-24T02:02:07.137Z,9.07
2019-01-24T02:04:35.715Z,10.23
2019-01-24T02:07:04.205Z,7.60
2019-01-24T02:09:32.638Z,8.63
2019-01-24T02:12:01.041Z,7.27
2019-01-24T02:14:29.405Z,8.70
2019-01-24T02:16:57.857Z,10.93
2019-01-24T02:19:26.295Z,8.17
2019-01-24T02:21:55.053Z,8.97
2019-01-24T02:24:23.602Z,8.60
2019-01-24T02:26:52.097Z,6.67
2019-01-24T02:29:20.409Z,12.07
2019-01-24T02:31:48.842Z,7.40
2019-01-24T02:34:17.250Z,8.67
2019-01-24T02:36:45.753Z,8.40
2019-01-24T02:39:14.379Z,7.70
2019-01-24T02:41:42.901Z,7.47
2019-01-24T02:44:11.586Z,11.40
2019-01-24T02:46:40.040Z,7.80
2019-01-24T02:49:08.372Z,11.00
2019-01-24T02:51:36.989Z,8.70
2019-01-24T02:54:05.521Z,9.17
2019-01-24T02:56:34.081Z,7.50
2019-01-24T02:59:02.642Z,7.37
2019-01-24T03:01:31.081Z,7.00
2019-01-24T03:03:59.585Z,6.10
2019-01-24T03:06:28.123Z,6.07
2019-01-24T03:08:56.490Z,9.13
2019-01-24T03:11:25.006Z,6.43
2019-01-24T03:13:53.341Z,8.03
2019-01-24T03:16:21.809Z,6.70
2019-01-24T03:18:50.113Z,9.03
2019-01-24T03:21:18.573Z,8.70
2019-01-24T03:23:48.093Z,10.23
2019-01-24T03:26:16.493Z,7.30
2019-01-24T03:28:44.893Z,9.70
2019-01-24T03:31:13.305Z,7.70
2019-01-24T03:33:41.700Z,8.83
2019-01-24T03:36:10.069Z,6.40
2019-01-24T03:38:38.446Z,6.93
2019-01-24T03:41:06.942Z,6.60
2019-01-24T03:43:36.737Z,6.23
2019-01-24T03:46:05.159Z,9.33
2019-01-24T03:48:33.541Z,6.17
2019-01-24T03:51:01.916Z,7.50
2019-01-24T03:53:30.410Z,6.80
2019-01-24T03:56:00.525Z,5.57
2019-01-24T03:58:29.067Z,8.33
2019-01-24T04:00:57.612Z,7.33
2019-01-24T04:03:25.990Z,6.90
2019-01-24T04:05:54.493Z,5.30
2019-01-24T04:08:22.965Z,5.53
2019-01-24T04:10:51.273Z,2.97
2019-01-24T04:13:19.645Z,4.60
2019-01-24T04:15:48.042Z,3.63
2019-01-24T04:18:16.532Z,2.70
2019-01-24T04:20:45.005Z,3.57
2019-01-24T04:23:13.420Z,1.20
2019-01-24T04:25:41.956Z,1.73
2019-01-24T04:28:10.333Z,1.57
2019-01-24T04:30:39.846Z,1.37
2019-01-24T04:33:08.172Z,1.27
2019-01-24T04:35:36.608Z,1.07
2019-01-24T04:38:05.136Z,0.63
2019-01-24T04:40:33.517Z,1.67
2019-01-24T04:43:01.960Z,2.30
2019-01-24T04:45:30.369Z,1.10
2019-01-24T04:47:58.850Z,0.73
2019-01-24T04:50:27.259Z,0.60
2019-01-24T04:52:55.663Z,1.00
2019-01-24T04:55:24.185Z,0.63
2019-01-24T04:57:52.563Z,2.70
2019-01-24T05:00:26.102Z,1.65
2019-01-24T05:02:54.509Z,1.50
2019-01-24T05:05:27.824Z,1.60
2019-01-24T05:07:53.642Z,4.37
2019-01-24T05:10:22.245Z,2.50
2019-01-24T05:12:50.569Z,2.37
2019-01-24T05:15:20.220Z,2.73
2019-01-24T05:17:49.618Z,3.80
2019-01-24T05:20:18.483Z,3.03
2019-01-24T05:22:47.065Z,4.57
2019-01-24T05:25:16.575Z,3.97
2019-01-24T05:27:45.255Z,3.03
2019-01-24T05:30:19.874Z,4.57
2019-01-24T05:32:48.481Z,3.53
2019-01-24T05:35:17.011Z,2.70
2019-01-24T05:37:46.011Z,2.27
2019-01-24T05:40:14.631Z,3.20
2019-01-24T05:42:43.123Z,3.63
2019-01-24T05:45:11.653Z,5.57
2019-01-24T05:47:40.181Z,3.90
2019-01-24T05:50:09.390Z,2.27
2019-01-24T05:52:38.271Z,3.07
2019-01-24T05:55:07.661Z,3.23
2019-01-24T05:57:36.024Z,2.30
2019-01-24T06:00:06.772Z,3.70
2019-01-24T06:02:36.003Z,4.57
2019-01-24T06:05:06.473Z,3.07
2019-01-24T06:07:35.106Z,3.37
2019-01-24T06:10:04.994Z,2.30
2019-01-24T06:12:33.569Z,3.83
2019-01-24T06:15:02.066Z,2.90
2019-01-24T06:17:30.509Z,6.10
2019-01-24T06:19:59.011Z,4.75
2019-01-24T06:22:27.331Z,2.90
2019-01-24T06:24:55.782Z,6.77
2019-01-24T06:27:24.309Z,3.20
2019-01-24T06:29:52.685Z,4.80
2019-01-24T06:32:21.092Z,5.70
2019-01-24T06:34:49.879Z,6.53
2019-01-24T06:37:18.217Z,5.63
2019-01-24T06:39:46.646Z,4.33
2019-01-24T06:42:15.161Z,5.80
2019-01-24T06:44:44.585Z,5.43
2019-01-24T06:47:13.002Z,5.30
2019-01-24T06:49:41.395Z,5.43
2019-01-24T06:52:09.769Z,4.37
2019-01-24T06:54:38.770Z,5.03
2019-01-24T06:57:07.109Z,8.07
2019-01-24T06:59:35.595Z,5.43
2019-01-24T07:02:04.060Z,4.43
2019-01-24T07:04:32.548Z,6.23
2019-01-24T07:07:01.037Z,5.93
2019-01-24T07:09:29.464Z,9.43
2019-01-24T07:11:57.881Z,9.17
2019-01-24T07:14:26.361Z,4.30
2019-01-24T07:16:54.941Z,6.77
2019-01-24T07:19:23.738Z,4.50
2019-01-24T07:21:52.065Z,5.63
2019-01-24T07:24:21.481Z,5.57
2019-01-24T07:26:49.965Z,7.93
2019-01-24T07:29:18.420Z,6.57
2019-01-24T07:31:46.861Z,4.30
2019-01-24T07:34:15.225Z,4.77
2019-01-24T07:36:43.737Z,3.70
2019-01-24T07:39:12.101Z,4.60
2019-01-24T07:41:40.591Z,6.43
2019-01-24T07:44:09.012Z,5.90
2019-01-24T07:46:37.449Z,4.03
2019-01-24T07:49:05.857Z,5.17
2019-01-24T07:51:34.424Z,4.03
2019-01-24T07:54:02.954Z,5.67
2019-01-24T07:56:31.797Z,4.20
2019-01-24T07:59:00.718Z,3.08
2019-01-24T08:01:31.101Z,4.67
2019-01-24T08:03:59.514Z,2.70
2019-01-24T08:06:28.233Z,3.77
2019-01-24T08:08:56.558Z,3.60
2019-01-24T08:11:25.060Z,5.83
2019-01-24T08:13:53.550Z,5.13
2019-01-24T08:16:22.235Z,4.17
2019-01-24T08:18:50.545Z,5.63
2019-01-24T08:21:20.209Z,3.53
2019-01-24T08:23:48.590Z,3.00
2019-01-24T08:26:17.205Z,4.40
2019-01-24T08:28:45.715Z,2.20
2019-01-24T08:31:14.281Z,3.07
2019-01-24T08:33:42.810Z,4.37
2019-01-24T08:36:15.527Z,2.57
2019-01-24T08:38:41.468Z,2.23
2019-01-24T08:41:09.873Z,2.93
2019-01-24T08:43:38.340Z,2.70
2019-01-24T08:46:06.745Z,2.70
2019-01-24T08:48:36.425Z,2.73
2019-01-24T08:51:04.905Z,2.97
2019-01-24T08:53:33.476Z,2.83
2019-01-24T08:56:02.123Z,3.10
2019-01-24T08:58:30.605Z,2.33
2019-01-24T09:00:58.915Z,2.87
2019-01-24T09:03:27.381Z,2.83
2019-01-24T09:05:55.692Z,3.67
2019-01-24T09:08:24.158Z,2.73
2019-01-24T09:10:53.467Z,2.13
2019-01-24T09:13:21.858Z,3.07
2019-01-24T09:15:50.353Z,5.63
2019-01-24T09:18:18.824Z,4.17
2019-01-24T09:20:47.430Z,4.60
2019-01-24T09:23:15.964Z,4.37
2019-01-24T09:25:45.112Z,3.80
2019-01-24T09:28:14.921Z,4.87
2019-01-24T09:30:44.076Z,3.95
2019-01-24T09:33:12.434Z,4.60
2019-01-24T09:35:41.025Z,5.23
2019-01-24T09:38:09.917Z,3.97
2019-01-24T09:40:38.513Z,2.90
2019-01-24T09:43:06.861Z,3.60
2019-01-24T09:45:35.342Z,3.03
2019-01-24T09:48:04.498Z,4.60
2019-01-24T09:50:32.824Z,3.87
2019-01-24T09:53:01.183Z,4.87
2019-01-24T09:55:29.990Z,3.73
2019-01-24T09:57:58.445Z,4.47
2019-01-24T10:00:28.924Z,3.87
2019-01-24T10:02:57.573Z,3.20
2019-01-24T10:05:25.883Z,3.63
2019-01-24T10:07:56.235Z,3.80
2019-01-24T10:10:25.250Z,2.70
2019-01-24T10:12:54.934Z,6.33
2019-01-24T10:15:23.639Z,3.40
2019-01-24T10:17:53.431Z,4.30
2019-01-24T10:20:23.520Z,3.43
2019-01-24T10:22:52.308Z,6.03
2019-01-24T10:25:24.992Z,5.00
2019-01-24T10:27:53.650Z,6.83
2019-01-24T10:30:22.972Z,4.93
2019-01-24T10:32:52.015Z,4.63
2019-01-24T10:35:20.764Z,6.67
2019-01-24T10:37:49.583Z,5.23
2019-01-24T10:40:20.607Z,7.17
2019-01-24T10:42:49.282Z,6.17
2019-01-24T10:45:18.548Z,8.93
2019-01-24T10:47:47.706Z,6.50
2019-01-24T10:50:18.593Z,7.47
2019-01-24T10:52:48.274Z,7.93
2019-01-24T10:55:19.229Z,6.73
2019-01-24T10:57:48.308Z,8.00
2019-01-24T11:00:20.561Z,8.50
2019-01-24T11:02:49.542Z,8.07
2019-01-24T11:05:18.742Z,7.70
2019-01-24T11:07:47.921Z,6.07
2019-01-24T11:10:20.484Z,8.50
2019-01-24T11:12:49.396Z,5.33
2019-01-24T11:15:20.096Z,7.93
2019-01-24T11:17:48.920Z,8.93
2019-01-24T11:20:24.364Z,10.43
2019-01-24T11:22:53.105Z,6.43
2019-01-24T11:25:22.464Z,7.83
2019-01-24T11:27:51.307Z,6.70
2019-01-24T11:30:23.018Z,7.73
2019-01-24T11:32:52.229Z,8.83
2019-01-24T11:35:24.780Z,11.03
2019-01-24T11:37:55.333Z,14.80
2019-01-24T11:40:24.143Z,13.47
2019-01-24T11:42:53.105Z,9.17
2019-01-24T11:45:23.894Z,9.23
2019-01-24T11:47:52.673Z,11.20
2019-01-24T11:50:21.664Z,10.77
2019-01-24T11:52:51.614Z,11.63
2019-01-24T11:55:20.830Z,13.30
2019-01-24T11:57:51.889Z,10.07
2019-01-24T12:00:28.058Z,15.10
2019-01-24T12:02:57.014Z,10.60
2019-01-24T12:05:25.847Z,13.87
2019-01-24T12:07:54.491Z,15.57
2019-01-24T12:10:24.445Z,22.67
2019-01-24T12:12:53.530Z,20.67
2019-01-24T12:15:23.367Z,41.53
2019-01-24T12:17:52.125Z,33.57
2019-01-24T12:20:22.251Z,30.87
2019-01-24T12:22:51.091Z,28.20
2019-01-24T12:25:20.192Z,30.03
2019-01-24T12:27:49.743Z,26.90
2019-01-24T12:30:24.482Z,24.30
2019-01-24T12:32:53.391Z,24.20
2019-01-24T12:35:22.062Z,24.12
2019-01-24T12:37:51.699Z,25.40
2019-01-24T12:40:20.353Z,23.10
2019-01-24T12:42:49.610Z,23.93
2019-01-24T12:45:20.681Z,30.77
2019-01-24T12:47:49.161Z,41.90
2019-01-24T12:50:17.861Z,42.10
2019-01-24T12:52:47.568Z,47.53
2019-01-24T12:55:17.447Z,49.30
2019-01-24T12:57:45.940Z,42.97
2019-01-24T13:00:17.850Z,45.97
2019-01-24T13:02:46.430Z,50.03
2019-01-24T13:05:14.907Z,47.67
2019-01-24T13:07:43.393Z,58.20
2019-01-24T13:10:14.556Z,82.23
2019-01-24T13:12:43.444Z,69.77
2019-01-24T13:15:13.772Z,60.53
2019-01-24T13:17:42.414Z,60.97
2019-01-24T13:20:12.689Z,65.47
2019-01-24T13:22:41.370Z,79.33
2019-01-24T13:25:13.914Z,74.17
2019-01-24T13:27:42.591Z,57.87
2019-01-24T13:30:17.254Z,55.70
2019-01-24T13:32:46.941Z,48.40
2019-01-24T13:35:15.439Z,45.43
2019-01-24T13:37:43.866Z,40.10
2019-01-24T13:40:13.845Z,32.17
2019-01-24T13:42:42.602Z,37.43
2019-01-24T13:45:11.976Z,45.37
2019-01-24T13:47:40.324Z,38.17
2019-01-24T13:50:09.959Z,39.37
2019-01-24T13:52:38.337Z,43.10
2019-01-24T13:55:08.758Z,46.40
2019-01-24T13:57:36.934Z,41.20
2019-01-24T14:00:07.537Z,48.60
2019-01-24T14:02:35.908Z,49.47
2019-01-24T14:05:04.851Z,51.57
2019-01-24T14:07:33.316Z,42.83
2019-01-24T14:10:01.782Z,43.73
2019-01-24T14:12:30.092Z,36.03
2019-01-24T14:15:01.902Z,46.73
2019-01-24T14:17:30.101Z,42.67
2019-01-24T14:19:58.333Z,41.27
2019-01-24T14:22:26.540Z,42.83
2019-01-24T14:24:54.752Z,42.80
2019-01-24T14:27:23.061Z,40.63
2019-01-24T14:29:51.262Z,43.63
2019-01-24T14:32:19.444Z,35.57
2019-01-24T14:34:49.541Z,43.13
2019-01-24T14:37:18.325Z,35.57
2019-01-24T14:39:46.677Z,50.20
2019-01-24T14:42:14.788Z,40.57
2019-01-24T14:44:43.077Z,38.40
2019-01-24T14:47:11.288Z,28.70
2019-01-24T14:49:40.489Z,22.03
2019-01-24T14:52:08.755Z,25.60
2019-01-24T14:54:38.051Z,19.33
2019-01-24T14:57:06.345Z,21.43
2019-01-24T14:59:34.797Z,24.83
2019-01-24T15:02:02.988Z,21.60
2019-01-24T15:04:31.373Z,21.37
2019-01-24T15:06:59.612Z,25.73
2019-01-24T15:09:27.805Z,22.03
2019-01-24T15:11:56.084Z,19.50
2019-01-24T15:14:24.383Z,22.17
2019-01-24T15:16:52.798Z,21.13
2019-01-24T15:19:21.180Z,22.20
2019-01-24T15:21:49.436Z,22.87
2019-01-24T15:24:17.649Z,22.47
2019-01-24T15:26:45.953Z,21.90
2019-01-24T15:29:14.298Z,28.77
2019-01-24T15:31:43.116Z,26.67
2019-01-24T15:34:11.919Z,27.67
2019-01-24T15:36:40.522Z,30.40
2019-01-24T15:39:08.951Z,19.50
2019-01-24T15:41:37.414Z,13.43
2019-01-24T15:44:06.107Z,14.23
2019-01-24T15:46:34.646Z,13.83
2019-01-24T15:49:03.026Z,14.60
2019-01-24T15:51:31.536Z,12.37
2019-01-24T15:53:59.944Z,10.87
2019-01-24T15:56:28.467Z,11.67
2019-01-24T15:58:57.105Z,19.73
2019-01-24T16:01:25.491Z,16.20
2019-01-24T16:03:53.878Z,16.53
2019-01-24T16:06:22.401Z,14.17
2019-01-24T16:08:51.110Z,16.57
2019-01-24T16:11:19.688Z,16.30
2019-01-24T16:13:47.936Z,16.10
2019-01-24T16:16:16.799Z,14.83
2019-01-24T16:18:45.276Z,15.30
2019-01-24T16:21:13.757Z,15.60
2019-01-24T16:23:42.262Z,17.30
2019-01-24T16:26:10.772Z,15.53
2019-01-24T16:28:39.497Z,16.40
2019-01-24T16:31:07.851Z,22.33
2019-01-24T16:33:36.394Z,24.43
2019-01-24T16:36:04.765Z,96.13
2019-01-24T16:38:33.242Z,28.43
2019-01-24T16:41:01.823Z,16.40
2019-01-24T16:43:30.370Z,15.47
2019-01-24T16:45:59.119Z,12.63
2019-01-24T16:48:27.653Z,13.00
2019-01-24T16:50:56.402Z,18.23
2019-01-24T16:53:25.115Z,12.13
2019-01-24T16:55:53.545Z,9.47
2019-01-24T16:58:21.854Z,10.47
2019-01-24T17:00:55.682Z,9.63
2019-01-24T17:03:23.863Z,10.63
2019-01-24T17:05:52.637Z,8.30
2019-01-24T17:08:21.303Z,7.03
2019-01-24T17:10:49.980Z,6.17
2019-01-24T17:13:18.648Z,5.40
2019-01-24T17:15:47.260Z,4.27
2019-01-24T17:18:16.032Z,4.60
2019-01-24T17:20:44.452Z,5.53
2019-01-24T17:23:12.968Z,8.30
2019-01-24T17:25:41.414Z,6.23
2019-01-24T17:28:10.060Z,5.83
2019-01-24T17:30:38.752Z,6.47
2019-01-24T17:33:07.385Z,9.27
2019-01-24T17:35:35.816Z,10.90
2019-01-24T17:38:05.601Z,10.37
2019-01-24T17:40:34.214Z,10.83
2019-01-24T17:43:02.914Z,7.83
2019-01-24T17:45:32.250Z,7.63
2019-01-24T17:48:01.013Z,9.50
2019-01-24T17:50:29.370Z,8.43
2019-01-24T17:52:57.765Z,9.17
2019-01-24T17:55:30.370Z,7.07
2019-01-24T17:57:58.652Z,7.37
2019-01-24T18:00:29.124Z,7.90
2019-01-24T18:02:58.136Z,5.97
2019-01-24T18:05:26.345Z,6.80
2019-01-24T18:07:54.989Z,4.93
2019-01-24T18:10:23.849Z,6.17
2019-01-24T18:12:53.376Z,7.87
2019-01-24T18:15:23.113Z,9.83
2019-01-24T18:17:51.598Z,11.93
2019-01-24T18:20:20.631Z,11.07
2019-01-24T18:22:48.957Z,11.30
2019-01-24T18:25:17.357Z,14.63
2019-01-24T18:27:45.485Z,11.47
2019-01-24T18:30:15.164Z,7.53
2019-01-24T18:32:43.561Z,6.13
2019-01-24T18:35:12.046Z,5.33
2019-01-24T18:37:40.431Z,7.07
2019-01-24T18:40:10.546Z,5.73
2019-01-24T18:42:38.744Z,4.17
2019-01-24T18:45:08.572Z,2.70
2019-01-24T18:47:37.168Z,3.00
2019-01-24T18:50:06.667Z,2.97
2019-01-24T18:52:35.397Z,2.83
2019-01-24T18:55:04.400Z,5.60
2019-01-24T18:57:32.968Z,5.57
2019-01-24T19:00:01.281Z,4.70
2019-01-24T19:02:30.008Z,2.73
2019-01-24T19:04:58.336Z,2.60
2019-01-24T19:07:26.587Z,2.93
2019-01-24T19:09:56.161Z,7.57
2019-01-24T19:12:24.400Z,2.97
2019-01-24T19:14:52.812Z,2.83
2019-01-24T19:17:21.230Z,4.23
2019-01-24T19:19:49.744Z,5.10
2019-01-24T19:22:18.349Z,5.20
2019-01-24T19:24:46.701Z,6.03
2019-01-24T19:27:14.925Z,8.97
2019-01-24T19:29:43.265Z,10.80
2019-01-24T19:32:11.797Z,9.47
2019-01-24T19:34:40.064Z,11.63
2019-01-24T19:37:08.646Z,13.93
2019-01-24T19:39:37.107Z,11.10
2019-01-24T19:42:05.416Z,16.50
2019-01-24T19:44:33.664Z,16.60
2019-01-24T19:47:01.875Z,10.10
2019-01-24T19:49:30.396Z,15.70
2019-01-24T19:51:59.131Z,13.30
2019-01-24T19:54:27.616Z,11.53
2019-01-24T19:56:57.319Z,11.83
2019-01-24T19:59:25.835Z,7.17
2019-01-24T20:01:54.012Z,7.27
2019-01-24T20:04:23.517Z,7.70
2019-01-24T20:06:51.700Z,36.73
2019-01-24T20:09:19.825Z,11.77
2019-01-24T20:11:48.080Z,13.50
2019-01-24T20:14:16.196Z,16.30
2019-01-24T20:16:44.340Z,23.77
2019-01-24T20:19:12.584Z,13.53
2019-01-24T20:21:40.703Z,9.67
2019-01-24T20:24:09.957Z,11.40
2019-01-24T20:26:38.180Z,11.90
2019-01-24T20:29:06.302Z,13.87
2019-01-24T20:31:34.453Z,13.20
2019-01-24T20:34:02.811Z,12.97
2019-01-24T20:36:31.030Z,15.53
2019-01-24T20:39:00.079Z,12.10
2019-01-24T20:41:30.861Z,14.37
2019-01-24T20:43:58.987Z,11.13
2019-01-24T20:46:27.120Z,10.07
2019-01-24T20:48:55.346Z,10.47
2019-01-24T20:51:23.528Z,7.03
2019-01-24T20:53:51.783Z,5.30
2019-01-24T20:56:20.225Z,3.00
2019-01-24T20:58:49.593Z,5.07
2019-01-24T21:01:17.960Z,4.53
2019-01-24T21:03:46.072Z,6.03
2019-01-24T21:06:14.365Z,6.20
2019-01-24T21:08:42.586Z,6.73
2019-01-24T21:11:10.997Z,4.43
2019-01-24T21:13:39.294Z,5.47
2019-01-24T21:16:07.770Z,4.53
2019-01-24T21:18:36.164Z,4.20
2019-01-24T21:21:04.782Z,5.43
2019-01-24T21:23:33.743Z,5.33
2019-01-24T21:26:02.204Z,7.27
2019-01-24T21:28:30.733Z,4.53
2019-01-24T21:30:59.128Z,4.50
2019-01-24T21:33:27.426Z,4.70
2019-01-24T21:35:56.501Z,4.50
2019-01-24T21:38:24.793Z,4.13
2019-01-24T21:40:53.215Z,4.90
2019-01-24T21:43:21.342Z,3.27
2019-01-24T21:45:49.705Z,4.40
2019-01-24T21:48:20.130Z,3.97
2019-01-24T21:50:49.136Z,3.17
2019-01-24T21:53:17.320Z,3.53
2019-01-24T21:55:45.618Z,1.73
2019-01-24T21:58:13.948Z,1.60
2019-01-24T22:00:42.173Z,2.93
2019-01-24T22:03:10.405Z,1.33
2019-01-24T22:05:38.669Z,1.50
2019-01-24T22:08:07.104Z,1.30
2019-01-24T22:10:35.356Z,0.50
2019-01-24T22:13:04.399Z,1.00
2019-01-24T22:15:34.284Z,0.90
2019-01-24T22:18:04.528Z,1.10
2019-01-24T22:20:32.810Z,1.37
2019-01-24T22:23:01.061Z,0.90
2019-01-24T22:25:30.524Z,0.77
2019-01-24T22:27:58.867Z,0.70
2019-01-24T22:30:30.526Z,0.43
2019-01-24T22:32:59.784Z,0.70
2019-01-24T22:35:27.965Z,1.00
2019-01-24T22:37:56.300Z,2.20
2019-01-24T22:40:24.413Z,1.50
2019-01-24T22:42:52.701Z,0.80
2019-01-24T22:45:21.708Z,0.80
2019-01-24T22:47:49.997Z,1.30
2019-01-24T22:50:19.992Z,1.00
2019-01-24T22:52:52.901Z,1.17
2019-01-24T22:55:21.304Z,0.70
2019-01-24T22:57:49.662Z,1.90
2019-01-24T23:00:46.321Z,0.80
2019-01-24T23:03:18.041Z,1.10
2019-01-24T23:05:46.389Z,3.17
2019-01-24T23:08:15.724Z,1.87
2019-01-24T23:10:43.909Z,1.37
2019-01-24T23:13:12.118Z,1.13
2019-01-24T23:15:40.301Z,1.73
2019-01-24T23:18:08.606Z,2.20
2019-01-24T23:20:36.781Z,5.43
2019-01-24T23:23:10.073Z,2.07
2019-01-24T23:25:39.089Z,2.20
2019-01-24T23:28:07.425Z,2.10
2019-01-24T23:30:35.616Z,2.10
2019-01-24T23:33:04.077Z,2.90
2019-01-24T23:35:32.265Z,3.13
2019-01-24T23:38:00.493Z,1.70
2019-01-24T23:40:28.707Z,3.53
2019-01-24T23:42:56.993Z,2.67
2019-01-24T23:45:25.275Z,2.70
2019-01-24T23:47:53.888Z,2.93
2019-01-24T23:50:22.460Z,3.20
2019-01-24T23:52:50.964Z,2.83
2019-01-24T23:55:19.196Z,2.43
2019-01-24T23:57:47.512Z,2.83
